^^
Meteo Knjazevac Station Historical Data
Daily Summary for September 9, 2021 Units:  English    Metric   Both
Daily Weekly Monthly Yearly Custom
  High: Low: Average:
Temperature: 99.5 °F 61 °F 80.4 °F
Dew Point: 69.6 °F 56.4 °F 62.8 °F
Humidity: 86% 33% 59%
Wind Speed: 8mph 0mph 2.3mph
Wind Gust: 14mph - -
Wind- - West
Pressure: 30.12 in 30.06 in -
Precipitation: 0.00 in    
Historical Graphs
 
 
Tabular Data for September 9, 2021
Time Temperature Dew Point Pressure Wind Wind Speed Wind Gust Humidity Rainfall Rate (Hourly) solar Conditions
00:00 68.7 °F 59.3 °F 30.06 in WNW 1 mph 4 mph 72% 0.00 in 0 W/m2
00:10 68.4 °F 59.4 °F 30.06 in WSW 2 mph 3 mph 73% 0.00 in 0 W/m2
00:20 68.2 °F 59.2 °F 30.06 in NW 1 mph 5 mph 73% 0.00 in 0 W/m2
00:30 68.2 °F 59.6 °F 30.06 in Calm   1 mph 74% 0.00 in 0 W/m2
00:40 67.8 °F 59.2 °F 30.07 in Calm   2 mph 74% 0.00 in 0 W/m2
00:50 67.3 °F 59.1 °F 30.07 in NW 1 mph 2 mph 75% 0.00 in 0 W/m2
01:00 67.1 °F 58.9 °F 30.06 in WNW 1 mph 2 mph 75% 0.00 in 0 W/m2
01:10 66.7 °F 59.3 °F 30.06 in WNW 2 mph 4 mph 77% 0.00 in 0 W/m2
01:20 66.6 °F 59.1 °F 30.06 in WNW 2 mph 4 mph 77% 0.00 in 0 W/m2
01:30 66.4 °F 58.2 °F 30.06 in West 2 mph 5 mph 75% 0.00 in 0 W/m2
01:40 66 °F 58.6 °F 30.06 in Calm   4 mph 77% 0.00 in 0 W/m2
01:50 65.5 °F 58.4 °F 30.06 in WNW 1 mph 2 mph 78% 0.00 in 0 W/m2
02:00 64.9 °F 58.3 °F 30.06 in West 2 mph 5 mph 79% 0.00 in 0 W/m2
02:10 64.9 °F 57.9 °F 30.07 in West 3 mph 5 mph 78% 0.00 in 0 W/m2
02:20 64.6 °F 57.6 °F 30.07 in West 2 mph 5 mph 78% 0.00 in 0 W/m2
02:30 64.6 °F 57.9 °F 30.07 in WSW 1 mph 3 mph 79% 0.00 in 0 W/m2
02:40 64.2 °F 57.6 °F 30.07 in Calm   2 mph 79% 0.00 in 0 W/m2
02:50 64 °F 57.7 °F 30.08 in Calm   2 mph 80% 0.00 in 0 W/m2
03:00 64 °F 57.7 °F 30.08 in Calm   2 mph 80% 0.00 in 0 W/m2
03:10 63.7 °F 57.4 °F 30.08 in Calm   2 mph 80% 0.00 in 0 W/m2
03:20 63.5 °F 57.2 °F 30.08 in WNW 1 mph 2 mph 80% 0.00 in 0 W/m2
03:30 63.5 °F 57.6 °F 30.08 in Calm   2 mph 81% 0.00 in 0 W/m2
03:40 63.5 °F 57.6 °F 30.08 in Calm   2 mph 81% 0.00 in 0 W/m2
03:50 63 °F 57 °F 30.08 in West 1 mph 2 mph 81% 0.00 in 0 W/m2
04:00 62.6 °F 57.4 °F 30.08 in Calm   2 mph 83% 0.00 in 0 W/m2
04:10 62.4 °F 57.2 °F 30.09 in NW 1 mph 2 mph 83% 0.00 in 0 W/m2
04:20 62.4 °F 57.2 °F 30.09 in Calm   2 mph 83% 0.00 in 0 W/m2
04:30 62.2 °F 57.3 °F 30.09 in NNW 1 mph 2 mph 84% 0.00 in 0 W/m2
04:40 61.9 °F 57 °F 30.09 in Calm   2 mph 84% 0.00 in 0 W/m2
04:50 61.5 °F 56.6 °F 30.09 in WNW 1 mph 2 mph 84% 0.00 in 0 W/m2
05:00 61.1 °F 56.6 °F 30.10 in WSW 2 mph 4 mph 85% 0.00 in 0 W/m2
05:10 61 °F 56.4 °F 30.10 in West 2 mph 5 mph 85% 0.00 in 0 W/m2
05:20 61.2 °F 56.6 °F 30.10 in WNW 2 mph 5 mph 85% 0.00 in 0 W/m2
05:30 61.3 °F 56.8 °F 30.10 in West 2 mph 3 mph 85% 0.00 in 4 W/m2
05:40 61.2 °F 56.6 °F 30.11 in West 1 mph 2 mph 85% 0.00 in 9 W/m2
05:50 61.2 °F 56.6 °F 30.11 in WNW 1 mph 2 mph 85% 0.00 in 17 W/m2
06:00 61.2 °F 56.6 °F 30.11 in NW 1 mph 3 mph 85% 0.00 in 28 W/m2
06:10 61.3 °F 56.8 °F 30.11 in Calm   2 mph 85% 0.00 in 42 W/m2
06:20 61.3 °F 56.8 °F 30.11 in WNW 1 mph 3 mph 85% 0.00 in 58 W/m2
06:30 61.5 °F 57.3 °F 30.11 in WNW 1 mph 3 mph 86% 0.00 in 77 W/m2
06:40 61.5 °F 57.3 °F 30.11 in WNW 1 mph 2 mph 86% 0.00 in 98 W/m2
06:50 61.5 °F 57.3 °F 30.12 in West 2 mph 4 mph 86% 0.00 in 125 W/m2
07:00 61.9 °F 57.6 °F 30.12 in West 1 mph 3 mph 86% 0.00 in 152 W/m2
07:10 62.2 °F 58 °F 30.12 in WNW 1 mph 2 mph 86% 0.00 in 173 W/m2
07:20 62.8 °F 58.5 °F 30.12 in WNW 1 mph 2 mph 86% 0.00 in 202 W/m2
07:30 63.5 °F 58.9 °F 30.12 in West 2 mph 3 mph 85% 0.00 in 241 W/m2
07:40 64.3 °F 59.3 °F 30.12 in WNW 2 mph 5 mph 84% 0.00 in 265 W/m2
07:50 65.2 °F 59.2 °F 30.12 in WNW 1 mph 4 mph 81% 0.00 in 310 W/m2
08:00 66.1 °F 60.1 °F 30.12 in Calm   3 mph 81% 0.00 in 358 W/m2
08:10 67.1 °F 61.1 °F 30.12 in WNW 1 mph 3 mph 81% 0.00 in 403 W/m2
08:20 68.2 °F 61.5 °F 30.12 in WNW 1 mph 4 mph 79% 0.00 in 436 W/m2
08:30 69.3 °F 61.8 °F 30.12 in WNW 1 mph 3 mph 77% 0.00 in 472 W/m2
08:40 70.5 °F 62.2 °F 30.12 in WNW 1 mph 3 mph 75% 0.00 in 503 W/m2
08:50 72 °F 63.3 °F 30.12 in West 1 mph 5 mph 74% 0.00 in 536 W/m2
09:00 73.7 °F 64.1 °F 30.12 in West 2 mph 4 mph 72% 0.00 in 575 W/m2
09:10 76.3 °F 65.8 °F 30.12 in West 1 mph 3 mph 70% 0.00 in 609 W/m2
09:20 78.8 °F 67.4 °F 30.12 in WSW 1 mph 3 mph 68% 0.00 in 636 W/m2
09:30 81 °F 67.7 °F 30.12 in WNW 1 mph 3 mph 64% 0.00 in 662 W/m2
09:40 83 °F 67.2 °F 30.12 in SE 1 mph 4 mph 59% 0.00 in 687 W/m2
09:50 84.4 °F 67.5 °F 30.12 in SE 1 mph 3 mph 57% 0.00 in 711 W/m2
10:00 86 °F 67.5 °F 30.11 in South 1 mph 6 mph 54% 0.00 in 733 W/m2
10:10 87.3 °F 68.1 °F 30.12 in SSE 2 mph 6 mph 53% 0.00 in 755 W/m2
10:20 88.4 °F 67.4 °F 30.11 in SSE 2 mph 5 mph 50% 0.00 in 775 W/m2
10:30 89.6 °F 67.9 °F 30.11 in SSW 1 mph 5 mph 49% 0.00 in 795 W/m2
10:40 90.5 °F 68.2 °F 30.11 in South 1 mph 5 mph 48% 0.00 in 813 W/m2
10:50 91.2 °F 68.2 °F 30.10 in SSW 1 mph 6 mph 47% 0.00 in 158 W/m2
11:00 92 °F 68.2 °F 30.11 in SSE 1 mph 8 mph 46% 0.00 in 844 W/m2
11:10 93.1 °F 68.6 °F 30.10 in SSE 1 mph 6 mph 45% 0.00 in 173 W/m2
11:20 93.6 °F 68.4 °F 30.10 in SW 3 mph 6 mph 44% 0.00 in 572 W/m2
11:30 94.3 °F 69 °F 30.10 in South 3 mph 7 mph 44% 0.00 in 881 W/m2
11:40 94.5 °F 69.2 °F 30.10 in WSW 6 mph 10 mph 44% 0.00 in 890 W/m2
11:50 94.9 °F 69.5 °F 30.10 in SSW 3 mph 8 mph 44% 0.00 in 898 W/m2
12:00 95.2 °F 69.2 °F 30.10 in SSW 5 mph 8 mph 43% 0.00 in 904 W/m2
12:10 95.4 °F 69.3 °F 30.10 in SW 2 mph 8 mph 43% 0.00 in 909 W/m2
12:20 95.5 °F 68.8 °F 30.10 in SW 3 mph 8 mph 42% 0.00 in 793 W/m2
12:30 95.7 °F 69 °F 30.10 in WSW 2 mph 8 mph 42% 0.00 in 914 W/m2
12:40 95.9 °F 69.1 °F 30.10 in WSW 6 mph 12 mph 42% 0.00 in 914 W/m2
12:50 96.4 °F 69.6 °F 30.10 in SW 3 mph 10 mph 42% 0.00 in 912 W/m2
13:00 96.6 °F 69.1 °F 30.10 in WSW 5 mph 11 mph 41% 0.00 in 909 W/m2
13:10 96.7 °F 69.1 °F 30.10 in West 3 mph 12 mph 41% 0.00 in 904 W/m2
13:20 96.8 °F 68.5 °F 30.09 in WNW 3 mph 9 mph 40% 0.00 in 898 W/m2
13:30 97 °F 68 °F 30.09 in WNW 6 mph 10 mph 39% 0.00 in 890 W/m2
13:40 97.3 °F 66.7 °F 30.09 in West 6 mph 10 mph 37% 0.00 in 881 W/m2
13:50 97.7 °F 68.6 °F 30.09 in WSW 6 mph 12 mph 39% 0.00 in 870 W/m2
14:00 97.8 °F 67.9 °F 30.09 in WSW 7 mph 12 mph 38% 0.00 in 857 W/m2
14:10 98.3 °F 67.5 °F 30.08 in SSW 3 mph 12 mph 37% 0.00 in 844 W/m2
14:20 98.6 °F 67 °F 30.08 in West 3 mph 12 mph 36% 0.00 in 829 W/m2
14:30 98.8 °F 66.4 °F 30.08 in WSW 6 mph 11 mph 35% 0.00 in 812 W/m2
14:40 98.8 °F 66.4 °F 30.08 in SW 8 mph 13 mph 35% 0.00 in 794 W/m2
14:50 98.8 °F 66.4 °F 30.08 in WSW 6 mph 12 mph 35% 0.00 in 775 W/m2
15:00 99 °F 66.5 °F 30.07 in West 6 mph 12 mph 35% 0.00 in 754 W/m2
15:10 99.1 °F 65.8 °F 30.07 in WNW 3 mph 12 mph 34% 0.00 in 733 W/m2
15:20 99.4 °F 66.9 °F 30.07 in West 6 mph 8 mph 35% 0.00 in 710 W/m2
15:30 99.5 °F 66.2 °F 30.07 in SW 5 mph 8 mph 34% 0.00 in 686 W/m2
15:40 99.3 °F 65.1 °F 30.06 in WSW 6 mph 13 mph 33% 0.00 in 661 W/m2
15:50 99.5 °F 66.2 °F 30.06 in WSW 5 mph 13 mph 34% 0.00 in 635 W/m2
16:00 99.5 °F 66.2 °F 30.06 in West 6 mph 12 mph 34% 0.00 in 609 W/m2
16:10 99.3 °F 66 °F 30.06 in West 6 mph 12 mph 34% 0.00 in 581 W/m2
16:20 99.5 °F 67 °F 30.06 in West 5 mph 11 mph 35% 0.00 in 553 W/m2
16:30 99.5 °F 66.2 °F 30.06 in West 6 mph 12 mph 34% 0.00 in 524 W/m2
16:40 99.1 °F 65.8 °F 30.06 in West 7 mph 12 mph 34% 0.00 in 494 W/m2
16:50 99 °F 65.7 °F 30.06 in West 6 mph 10 mph 34% 0.00 in 464 W/m2
17:00 99 °F 65.7 °F 30.06 in West 6 mph 11 mph 34% 0.00 in 427 W/m2
17:10 98.8 °F 65.5 °F 30.06 in West 6 mph 14 mph 34% 0.00 in 398 W/m2
17:20 98.4 °F 65.2 °F 30.06 in West 6 mph 13 mph 34% 0.00 in 366 W/m2
17:30 98.4 °F 65.2 °F 30.06 in West 6 mph 9 mph 34% 0.00 in 332 W/m2
17:40 98.1 °F 64.9 °F 30.06 in West 6 mph 10 mph 34% 0.00 in 298 W/m2
17:50 97.7 °F 64.6 °F 30.06 in West 6 mph 12 mph 34% 0.00 in 266 W/m2
18:00 97.5 °F 64.4 °F 30.06 in West 5 mph 9 mph 34% 0.00 in 229 W/m2
18:10 97.3 °F 65.1 °F 30.06 in West 5 mph 9 mph 35% 0.00 in 196 W/m2
18:20 97 °F 64.8 °F 30.06 in West 2 mph 7 mph 35% 0.00 in 165 W/m2
18:30 96.7 °F 64.6 °F 30.06 in West 2 mph 6 mph 35% 0.00 in 137 W/m2
18:40 96.4 °F 64.3 °F 30.06 in NW 2 mph 5 mph 35% 0.00 in 108 W/m2
18:50 95.9 °F 63 °F 30.06 in NNW 2 mph 6 mph 34% 0.00 in 80 W/m2
19:00 95.1 °F 63.2 °F 30.06 in North 2 mph 5 mph 35% 0.00 in 57 W/m2
19:10 94.1 °F 63.9 °F 30.06 in NNW 2 mph 3 mph 37% 0.00 in 38 W/m2
19:20 92.9 °F 63.6 °F 30.06 in Calm   4 mph 38% 0.00 in 24 W/m2
19:30 91.5 °F 65.2 °F 30.06 in North 1 mph 2 mph 42% 0.00 in 13 W/m2
19:40 89.9 °F 65.1 °F 30.06 in South 2 mph 3 mph 44% 0.00 in 5 W/m2
19:50 88.5 °F 63.8 °F 30.07 in WNW 2 mph 5 mph 44% 0.00 in 0 W/m2
20:00 87.3 °F 64.6 °F 30.07 in WSW 2 mph 5 mph 47% 0.00 in 0 W/m2
20:10 86.2 °F 64.8 °F 30.07 in West 1 mph 3 mph 49% 0.00 in 0 W/m2
20:20 84.9 °F 64.2 °F 30.08 in WSW 3 mph 5 mph 50% 0.00 in 0 W/m2
20:30 83.9 °F 63.3 °F 30.08 in SW 2 mph 3 mph 50% 0.00 in 0 W/m2
20:40 82.8 °F 63.3 °F 30.09 in SW 1 mph 2 mph 52% 0.00 in 0 W/m2
20:50 81.9 °F 63.6 °F 30.09 in WSW 1 mph 2 mph 54% 0.00 in 0 W/m2
21:00 81 °F 63.3 °F 30.10 in WSW 1 mph 2 mph 55% 0.00 in 0 W/m2
21:10 80.1 °F 62.4 °F 30.10 in Calm   2 mph 55% 0.00 in 0 W/m2
21:20 79.4 °F 61.9 °F 30.10 in WSW 2 mph 4 mph 55% 0.00 in 0 W/m2
21:30 78.7 °F 61.7 °F 30.10 in SW 1 mph 3 mph 56% 0.00 in 0 W/m2
21:40 78.1 °F 61.6 °F 30.10 in Calm   4 mph 57% 0.00 in 0 W/m2
21:50 77.5 °F 61.6 °F 30.10 in Calm   3 mph 58% 0.00 in 0 W/m2
22:00 76.7 °F 62.7 °F 30.10 in WSW 2 mph 4 mph 62% 0.00 in 0 W/m2
22:10 75.9 °F 62.4 °F 30.10 in West 2 mph 3 mph 63% 0.00 in 0 W/m2
22:20 75.2 °F 61.7 °F 30.11 in NNW 1 mph 3 mph 63% 0.00 in 0 W/m2
22:30 74.8 °F 61.4 °F 30.11 in South 1 mph 3 mph 63% 0.00 in 0 W/m2
22:40 74.7 °F 61.2 °F 30.11 in SSW 2 mph 3 mph 63% 0.00 in 0 W/m2
22:50 74.5 °F 61.1 °F 30.11 in Calm   2 mph 63% 0.00 in 0 W/m2
23:00 73.9 °F 61.4 °F 30.11 in WSW 2 mph 3 mph 65% 0.00 in 0 W/m2
23:10 73.4 °F 60.9 °F 30.11 in West 1 mph 3 mph 65% 0.00 in 0 W/m2
23:20 73.2 °F 60.7 °F 30.11 in Calm   2 mph 65% 0.00 in 0 W/m2
23:30 73 °F 61.4 °F 30.11 in Calm   2 mph 67% 0.00 in 0 W/m2
23:40 72.2 °F 61.5 °F 30.11 in Calm   2 mph 69% 0.00 in 0 W/m2
23:50 71.6 °F 60.9 °F 30.12 in West 1 mph 2 mph 69% 0.00 in 0 W/m2
Knjazevac, Serbia
Compliments of Weather Underground - 2 mb